sensor_id;sensor_type;location;lat;lon;timestamp;pressure;altitude;pressure_sealevel;temperature;humidity
5413;BME280;2729;50.056;8.678;2023-02-12T00:00:32;102397.75;;;7.40;100.00
5413;BME280;2729;50.056;8.678;2023-02-12T00:02:58;102400.53;;;7.50;100.00
5413;BME280;2729;50.056;8.678;2023-02-12T00:05:24;102404.59;;;7.37;100.00
5413;BME280;2729;50.056;8.678;2023-02-12T00:07:50;102396.16;;;7.47;100.00
5413;BME280;2729;50.056;8.678;2023-02-12T00:10:16;102405.06;;;7.19;100.00
5413;BME280;2729;50.056;8.678;2023-02-12T00:12:42;102410.59;;;7.34;100.00
5413;BME280;2729;50.056;8.678;2023-02-12T00:15:08;102398.66;;;7.42;100.00
5413;BME280;2729;50.056;8.678;2023-02-12T00:17:34;102395.22;;;7.43;100.00
5413;BME280;2729;50.056;8.678;2023-02-12T00:20:00;102397.69;;;7.37;100.00
5413;BME280;2729;50.056;8.678;2023-02-12T00:22:26;102396.56;;;7.26;100.00
5413;BME280;2729;50.056;8.678;2023-02-12T00:24:52;102389.03;;;7.38;100.00
5413;BME280;2729;50.056;8.678;2023-02-12T00:27:18;102390.88;;;7.42;100.00
5413;BME280;2729;50.056;8.678;2023-02-12T00:29:44;102396.81;;;7.37;100.00
5413;BME280;2729;50.056;8.678;2023-02-12T00:32:10;102389.94;;;7.40;100.00
5413;BME280;2729;50.056;8.678;2023-02-12T00:34:36;102392.44;;;7.36;100.00
5413;BME280;2729;50.056;8.678;2023-02-12T00:37:02;102395.94;;;7.36;100.00
5413;BME280;2729;50.056;8.678;2023-02-12T00:39:28;102395.16;;;7.40;100.00
5413;BME280;2729;50.056;8.678;2023-02-12T00:41:54;102403.53;;;7.29;100.00
5413;BME280;2729;50.056;8.678;2023-02-12T00:44:20;102404.34;;;7.26;100.00
5413;BME280;2729;50.056;8.678;2023-02-12T00:46:46;102397.41;;;7.25;100.00
5413;BME280;2729;50.056;8.678;2023-02-12T00:49:12;102406.28;;;7.35;100.00
5413;BME280;2729;50.056;8.678;2023-02-12T00:51:39;102402.97;;;7.42;100.00
5413;BME280;2729;50.056;8.678;2023-02-12T00:54:05;102401.19;;;7.39;100.00
5413;BME280;2729;50.056;8.678;2023-02-12T00:56:31;102401.25;;;7.42;100.00
5413;BME280;2729;50.056;8.678;2023-02-12T00:58:57;102405.41;;;7.34;100.00
5413;BME280;2729;50.056;8.678;2023-02-12T01:01:23;102405.44;;;7.36;100.00
5413;BME280;2729;50.056;8.678;2023-02-12T01:03:49;102406.31;;;7.36;100.00
5413;BME280;2729;50.056;8.678;2023-02-12T01:06:15;102393.34;;;7.38;100.00
5413;BME280;2729;50.056;8.678;2023-02-12T01:08:41;102396.88;;;7.40;100.00
5413;BME280;2729;50.056;8.678;2023-02-12T01:11:07;102389.88;;;7.37;100.00
5413;BME280;2729;50.056;8.678;2023-02-12T01:13:33;102390.03;;;7.43;100.00
5413;BME280;2729;50.056;8.678;2023-02-12T01:16:05;102395.94;;;7.36;100.00
5413;BME280;2729;50.056;8.678;2023-02-12T01:18:35;102391.53;;;7.34;100.00
5413;BME280;2729;50.056;8.678;2023-02-12T01:21:11;102392.31;;;7.30;100.00
5413;BME280;2729;50.056;8.678;2023-02-12T01:23:38;102402.00;;;7.37;100.00
5413;BME280;2729;50.056;8.678;2023-02-12T01:26:04;102398.38;;;7.30;100.00
5413;BME280;2729;50.056;8.678;2023-02-12T01:28:32;102399.22;;;7.29;100.00
5413;BME280;2729;50.056;8.678;2023-02-12T01:30:58;102398.50;;;6.99;100.00
5413;BME280;2729;50.056;8.678;2023-02-12T01:33:25;102393.69;;;7.14;100.00
5413;BME280;2729;50.056;8.678;2023-02-12T01:35:51;102391.44;;;7.29;100.00
5413;BME280;2729;50.056;8.678;2023-02-12T01:38:18;102401.81;;;7.29;100.00
5413;BME280;2729;50.056;8.678;2023-02-12T01:40:44;102395.94;;;7.36;100.00
5413;BME280;2729;50.056;8.678;2023-02-12T01:43:11;102398.66;;;7.42;100.00
5413;BME280;2729;50.056;8.678;2023-02-12T01:45:46;102390.91;;;7.44;100.00
5413;BME280;2729;50.056;8.678;2023-02-12T01:48:15;102390.97;;;7.47;100.00
5413;BME280;2729;50.056;8.678;2023-02-12T01:50:43;102396.03;;;7.41;100.00
5413;BME280;2729;50.056;8.678;2023-02-12T01:53:13;102391.53;;;7.34;100.00
5413;BME280;2729;50.056;8.678;2023-02-12T01:55:56;102394.16;;;7.35;100.00
5413;BME280;2729;50.056;8.678;2023-02-12T01:58:24;102393.31;;;7.36;100.00
5413;BME280;2729;50.056;8.678;2023-02-12T02:00:52;102394.31;;;7.41;100.00
5413;BME280;2729;50.056;8.678;2023-02-12T02:03:18;102392.53;;;7.39;100.00
5413;BME280;2729;50.056;8.678;2023-02-12T02:05:50;102396.63;;;7.29;100.00
5413;BME280;2729;50.056;8.678;2023-02-12T02:08:19;102397.56;;;7.33;100.00
5413;BME280;2729;50.056;8.678;2023-02-12T02:10:45;102393.97;;;7.26;100.00
5413;BME280;2729;50.056;8.678;2023-02-12T02:13:13;102394.06;;;7.31;100.00
5413;BME280;2729;50.056;8.678;2023-02-12T02:16:04;102392.41;;;7.34;100.00
5413;BME280;2729;50.056;8.678;2023-02-12T02:18:37;102388.94;;;7.34;100.00
5413;BME280;2729;50.056;8.678;2023-02-12T02:21:17;102400.19;;;7.33;100.00
5413;BME280;2729;50.056;8.678;2023-02-12T02:24:08;102397.44;;;7.27;100.00
5413;BME280;2729;50.056;8.678;2023-02-12T02:29:42;102397.69;;;7.37;100.00
5413;BME280;2729;50.056;8.678;2023-02-12T02:32:26;102387.31;;;7.39;100.00
5413;BME280;2729;50.056;8.678;2023-02-12T02:35:14;102386.47;;;7.40;100.00
5413;BME280;2729;50.056;8.678;2023-02-12T02:37:48;102392.47;;;7.37;100.00
5413;BME280;2729;50.056;8.678;2023-02-12T02:40:33;102381.31;;;7.41;100.00
5413;BME280;2729;50.056;8.678;2023-02-12T02:43:06;102382.91;;;7.35;100.00
5413;BME280;2729;50.056;8.678;2023-02-12T02:45:50;102382.06;;;7.36;100.00
5413;BME280;2729;50.056;8.678;2023-02-12T02:48:22;102378.69;;;7.40;100.00
5413;BME280;2729;50.056;8.678;2023-02-12T02:50:55;102383.94;;;7.43;100.00
5413;BME280;2729;50.056;8.678;2023-02-12T02:53:29;102380.44;;;7.41;100.00
5413;BME280;2729;50.056;8.678;2023-02-12T02:55:58;102382.97;;;7.38;100.00
5413;BME280;2729;50.056;8.678;2023-02-12T02:58:29;102387.84;;;7.24;100.00
5413;BME280;2729;50.056;8.678;2023-02-12T03:01:00;102380.78;;;7.17;100.00
5413;BME280;2729;50.056;8.678;2023-02-12T03:03:32;102374.97;;;7.29;100.00
5413;BME280;2729;50.056;8.678;2023-02-12T03:06:04;102382.72;;;7.27;100.00
5413;BME280;2729;50.056;8.678;2023-02-12T03:08:42;102386.13;;;7.25;100.00
5413;BME280;2729;50.056;8.678;2023-02-12T03:11:21;102382.63;;;7.23;100.00
5413;BME280;2729;50.056;8.678;2023-02-12T03:13:56;102382.69;;;7.26;100.00
5413;BME280;2729;50.056;8.678;2023-02-12T03:16:32;102381.91;;;7.30;100.00
5413;BME280;2729;50.056;8.678;2023-02-12T03:19:07;102389.88;;;7.37;100.00
5413;BME280;2729;50.056;8.678;2023-02-12T03:22:11;102389.00;;;7.37;100.00
5413;BME280;2729;50.056;8.678;2023-02-12T03:27:20;102396.34;;;7.17;100.00
5413;BME280;2729;50.056;8.678;2023-02-12T03:29:47;102392.91;;;7.18;100.00
5413;BME280;2729;50.056;8.678;2023-02-12T03:32:25;102398.09;;;7.18;100.00
5413;BME280;2729;50.056;8.678;2023-02-12T03:35:08;102395.75;;;7.29;100.00
5413;BME280;2729;50.056;8.678;2023-02-12T03:37:57;102388.97;;;7.35;100.00
5413;BME280;2729;50.056;8.678;2023-02-12T03:40:50;102390.78;;;7.39;100.00
5413;BME280;2729;50.056;8.678;2023-02-12T03:43:27;102382.03;;;7.34;100.00
5413;BME280;2729;50.056;8.678;2023-02-12T03:45:58;102384.66;;;7.36;100.00
5413;BME280;2729;50.056;8.678;2023-02-12T03:48:43;102390.84;;;7.41;100.00
5413;BME280;2729;50.056;8.678;2023-02-12T03:51:20;102392.59;;;7.42;100.00
5413;BME280;2729;50.056;8.678;2023-02-12T03:53:47;102387.44;;;7.43;100.00
5413;BME280;2729;50.056;8.678;2023-02-12T03:56:21;102386.56;;;7.45;100.00
5413;BME280;2729;50.056;8.678;2023-02-12T03:58:47;102392.59;;;7.42;100.00
5413;BME280;2729;50.056;8.678;2023-02-12T04:01:13;102394.34;;;7.43;100.00
5413;BME280;2729;50.056;8.678;2023-02-12T04:03:40;102395.16;;;7.40;100.00
5413;BME280;2729;50.056;8.678;2023-02-12T04:06:36;102395.22;;;7.43;100.00
5413;BME280;2729;50.056;8.678;2023-02-12T04:09:08;102401.25;;;7.42;100.00
5413;BME280;2729;50.056;8.678;2023-02-12T04:12:02;102402.97;;;7.42;100.00
5413;BME280;2729;50.056;8.678;2023-02-12T04:14:43;102408.13;;;7.40;100.00
5413;BME280;2729;50.056;8.678;2023-02-12T04:25:35;102417.22;;;7.22;100.00
5413;BME280;2729;50.056;8.678;2023-02-12T04:28:27;102421.16;;;7.42;100.00
5413;BME280;2729;50.056;8.678;2023-02-12T04:33:44;102420.22;;;7.38;100.00
5413;BME280;2729;50.056;8.678;2023-02-12T04:36:25;102433.19;;;7.38;100.00
5413;BME280;2729;50.056;8.678;2023-02-12T04:38:54;102427.22;;;7.42;100.00
5413;BME280;2729;50.056;8.678;2023-02-12T04:41:23;102427.13;;;7.38;100.00
5413;BME280;2729;50.056;8.678;2023-02-12T04:43:50;102430.25;;;7.23;100.00
5413;BME280;2729;50.056;8.678;2023-02-12T04:46:16;102430.50;;;7.34;100.00
5413;BME280;2729;50.056;8.678;2023-02-12T04:48:53;102438.13;;;7.26;100.00
5413;BME280;2729;50.056;8.678;2023-02-12T04:51:20;102437.19;;;7.24;100.00
5413;BME280;2729;50.056;8.678;2023-02-12T04:53:46;102439.09;;;7.31;100.00
5413;BME280;2729;50.056;8.678;2023-02-12T04:56:13;102439.13;;;7.33;100.00
5413;BME280;2729;50.056;8.678;2023-02-12T04:58:40;102440.16;;;7.39;100.00
5413;BME280;2729;50.056;8.678;2023-02-12T05:01:06;102437.59;;;7.41;100.00
5413;BME280;2729;50.056;8.678;2023-02-12T05:03:33;102438.53;;;7.45;100.00
5413;BME280;2729;50.056;8.678;2023-02-12T05:06:04;102434.97;;;7.39;100.00
5413;BME280;2729;50.056;8.678;2023-02-12T05:08:30;102433.25;;;7.40;100.00
5413;BME280;2729;50.056;8.678;2023-02-12T05:10:56;102436.78;;;7.43;100.00
5413;BME280;2729;50.056;8.678;2023-02-12T05:13:22;102429.91;;;7.46;100.00
5413;BME280;2729;50.056;8.678;2023-02-12T05:15:48;102431.72;;;7.50;100.00
5413;BME280;2729;50.056;8.678;2023-02-12T05:18:14;102425.75;;;7.54;100.00
5413;BME280;2729;50.056;8.678;2023-02-12T05:20:40;102421.38;;;7.51;100.00
5413;BME280;2729;50.056;8.678;2023-02-12T05:23:06;102420.50;;;7.51;100.00
5413;BME280;2729;50.056;8.678;2023-02-12T05:25:32;102420.31;;;7.43;100.00
5413;BME280;2729;50.056;8.678;2023-02-12T05:27:58;102422.03;;;7.42;100.00
5413;BME280;2729;50.056;8.678;2023-02-12T05:30:23;102423.94;;;7.50;100.00
5413;BME280;2729;50.056;8.678;2023-02-12T05:32:49;102418.78;;;7.51;100.00
5413;BME280;2729;50.056;8.678;2023-02-12T05:35:15;102418.84;;;7.54;100.00
5413;BME280;2729;50.056;8.678;2023-02-12T05:37:41;102423.97;;;7.51;100.00
5413;BME280;2729;50.056;8.678;2023-02-12T05:40:08;102418.03;;;7.57;100.00
5413;BME280;2729;50.056;8.678;2023-02-12T05:42:34;102419.72;;;7.55;100.00
5413;BME280;2729;50.056;8.678;2023-02-12T05:45:00;102426.53;;;7.50;100.00
5413;BME280;2729;50.056;8.678;2023-02-12T05:47:26;102427.41;;;7.50;100.00
5413;BME280;2729;50.056;8.678;2023-02-12T05:49:52;102428.16;;;7.45;100.00
5413;BME280;2729;50.056;8.678;2023-02-12T05:52:18;102430.84;;;7.49;100.00
5413;BME280;2729;50.056;8.678;2023-02-12T05:54:44;102434.31;;;7.50;100.00
5413;BME280;2729;50.056;8.678;2023-02-12T05:57:10;102439.44;;;7.47;100.00
5413;BME280;2729;50.056;8.678;2023-02-12T05:59:36;102435.63;;;7.31;100.00
5413;BME280;2729;50.056;8.678;2023-02-12T06:02:02;102438.28;;;7.34;100.00
5413;BME280;2729;50.056;8.678;2023-02-12T06:04:28;102431.25;;;7.28;100.00
5413;BME280;2729;50.056;8.678;2023-02-12T06:06:54;102436.59;;;7.36;100.00
5413;BME280;2729;50.056;8.678;2023-02-12T06:09:21;102435.75;;;7.37;100.00
5413;BME280;2729;50.056;8.678;2023-02-12T06:11:47;102436.72;;;7.40;100.00
5413;BME280;2729;50.056;8.678;2023-02-12T06:14:16;102438.59;;;7.48;100.00
5413;BME280;2729;50.056;8.678;2023-02-12T06:16:47;102433.31;;;7.43;100.00
5413;BME280;2729;50.056;8.678;2023-02-12T06:19:13;102438.50;;;7.43;100.00
5413;BME280;2729;50.056;8.678;2023-02-12T06:21:39;102438.47;;;7.41;100.00
5413;BME280;2729;50.056;8.678;2023-02-12T06:24:05;102447.16;;;7.43;100.00
5413;BME280;2729;50.056;8.678;2023-02-12T06:26:31;102444.53;;;7.42;100.00
5413;BME280;2729;50.056;8.678;2023-02-12T06:28:57;102450.47;;;7.36;100.00
5413;BME280;2729;50.056;8.678;2023-02-12T06:31:26;102452.19;;;7.36;100.00
5413;BME280;2729;50.056;8.678;2023-02-12T06:33:53;102457.34;;;7.34;100.00
5413;BME280;2729;50.056;8.678;2023-02-12T06:36:20;102459.13;;;7.37;100.00
5413;BME280;2729;50.056;8.678;2023-02-12T06:38:47;102461.84;;;7.41;100.00
5413;BME280;2729;50.056;8.678;2023-02-12T06:41:13;102457.63;;;7.47;100.00
5413;BME280;2729;50.056;8.678;2023-02-12T06:43:39;102466.31;;;7.47;100.00
5413;BME280;2729;50.056;8.678;2023-02-12T06:46:06;102462.72;;;7.42;100.00
5413;BME280;2729;50.056;8.678;2023-02-12T06:48:32;102471.19;;;7.33;100.00
5413;BME280;2729;50.056;8.678;2023-02-12T06:51:16;102473.66;;;7.29;100.00
5413;BME280;2729;50.056;8.678;2023-02-12T06:53:43;102470.34;;;7.34;100.00
5413;BME280;2729;50.056;8.678;2023-02-12T06:56:11;102473.59;;;7.26;100.00
5413;BME280;2729;50.056;8.678;2023-02-12T06:58:44;102478.75;;;7.24;100.00
5413;BME280;2729;50.056;8.678;2023-02-12T07:01:16;102479.69;;;7.28;100.00
5413;BME280;2729;50.056;8.678;2023-02-12T07:03:52;102476.22;;;7.27;100.00
5413;BME280;2729;50.056;8.678;2023-02-12T07:06:18;102483.25;;;7.31;100.00
5413;BME280;2729;50.056;8.678;2023-02-12T07:08:44;102485.16;;;7.38;100.00
5413;BME280;2729;50.056;8.678;2023-02-12T07:11:10;102483.53;;;7.43;100.00
5413;BME280;2729;50.056;8.678;2023-02-12T07:13:36;102488.88;;;7.50;100.00
5413;BME280;2729;50.056;8.678;2023-02-12T07:16:04;102488.75;;;7.43;100.00
5413;BME280;2729;50.056;8.678;2023-02-12T07:18:30;102488.13;;;7.54;100.00
5413;BME280;2729;50.056;8.678;2023-02-12T07:20:56;102482.81;;;7.49;100.00
5413;BME280;2729;50.056;8.678;2023-02-12T07:23:22;102487.06;;;7.46;100.00
5413;BME280;2729;50.056;8.678;2023-02-12T07:26:02;102486.03;;;7.39;100.00
5413;BME280;2729;50.056;8.678;2023-02-12T07:28:29;102491.53;;;7.51;100.00
5413;BME280;2729;50.056;8.678;2023-02-12T07:31:04;102499.50;;;7.59;100.00
5413;BME280;2729;50.056;8.678;2023-02-12T07:33:31;102504.84;;;7.65;100.00
5413;BME280;2729;50.056;8.678;2023-02-12T07:36:01;102500.59;;;7.68;100.00
5413;BME280;2729;50.056;8.678;2023-02-12T07:38:27;102497.94;;;7.67;100.00
5413;BME280;2729;50.056;8.678;2023-02-12T07:40:53;102499.88;;;7.75;100.00
5413;BME280;2729;50.056;8.678;2023-02-12T07:43:21;102500.00;;;7.80;100.00
5413;BME280;2729;50.056;8.678;2023-02-12T07:45:47;102504.50;;;7.87;100.00
5413;BME280;2729;50.056;8.678;2023-02-12T07:48:13;102500.25;;;7.91;100.00
5413;BME280;2729;50.056;8.678;2023-02-12T07:50:39;102500.28;;;7.92;100.00
5413;BME280;2729;50.056;8.678;2023-02-12T07:53:05;102508.09;;;7.92;100.00
5413;BME280;2729;50.056;8.678;2023-02-12T07:55:31;102501.88;;;7.86;100.00
5413;BME280;2729;50.056;8.678;2023-02-12T07:57:57;102509.84;;;7.93;100.00
5413;BME280;2729;50.056;8.678;2023-02-12T08:00:23;102504.88;;;8.04;100.00
5413;BME280;2729;50.056;8.678;2023-02-12T08:02:52;102509.91;;;7.96;100.00
5413;BME280;2729;50.056;8.678;2023-02-12T08:05:19;102511.66;;;7.97;100.00
5413;BME280;2729;50.056;8.678;2023-02-12T08:07:45;102512.66;;;8.04;100.00
5413;BME280;2729;50.056;8.678;2023-02-12T08:10:11;102510.06;;;8.04;100.00
5413;BME280;2729;50.056;8.678;2023-02-12T08:12:37;102510.25;;;8.13;100.00
5413;BME280;2729;50.056;8.678;2023-02-12T08:15:03;102511.06;;;8.11;100.00
5413;BME280;2729;50.056;8.678;2023-02-12T08:17:29;102513.84;;;8.18;100.00
5413;BME280;2729;50.056;8.678;2023-02-12T08:19:55;102515.72;;;8.25;100.00
5413;BME280;2729;50.056;8.678;2023-02-12T08:22:21;102516.66;;;8.29;100.00
5413;BME280;2729;50.056;8.678;2023-02-12T08:24:47;102516.53;;;8.23;100.00
5413;BME280;2729;50.056;8.678;2023-02-12T08:27:13;102520.97;;;8.27;100.00
5413;BME280;2729;50.056;8.678;2023-02-12T08:29:39;102523.78;;;8.36;100.00
5413;BME280;2729;50.056;8.678;2023-02-12T08:32:04;102517.00;;;8.44;100.00
5413;BME280;2729;50.056;8.678;2023-02-12T08:34:35;102519.75;;;8.52;100.00
5413;BME280;2729;50.056;8.678;2023-02-12T08:37:03;102527.53;;;8.50;100.00
5413;BME280;2729;50.056;8.678;2023-02-12T08:39:30;102527.53;;;8.50;100.00
5413;BME280;2729;50.056;8.678;2023-02-12T08:41:58;102532.03;;;8.57;100.00
5413;BME280;2729;50.056;8.678;2023-02-12T08:44:24;102528.75;;;8.67;100.00
5413;BME280;2729;50.056;8.678;2023-02-12T08:46:51;102530.59;;;8.73;100.00
5413;BME280;2729;50.056;8.678;2023-02-12T08:49:20;102527.91;;;8.68;100.00
5413;BME280;2729;50.056;8.678;2023-02-12T08:51:49;102531.56;;;8.80;100.00
5413;BME280;2729;50.056;8.678;2023-02-12T08:54:17;102531.72;;;8.87;100.00
5413;BME280;2729;50.056;8.678;2023-02-12T08:56:44;102529.09;;;8.86;100.00
5413;BME280;2729;50.056;8.678;2023-02-12T08:59:10;102527.38;;;8.88;100.00
5413;BME280;2729;50.056;8.678;2023-02-12T09:01:37;102534.47;;;8.95;100.00
5413;BME280;2729;50.056;8.678;2023-02-12T09:04:04;102538.53;;;8.81;100.00
5413;BME280;2729;50.056;8.678;2023-02-12T09:06:32;102534.56;;;9.01;100.00
5413;BME280;2729;50.056;8.678;2023-02-12T09:08:58;102536.28;;;8.99;100.00
5413;BME280;2729;50.056;8.678;2023-02-12T09:11:26;102541.59;;;9.05;100.00
5413;BME280;2729;50.056;8.678;2023-02-12T09:13:57;102539.69;;;8.96;100.00
5413;BME280;2729;50.056;8.678;2023-02-12T09:16:25;102535.31;;;8.94;100.00
5413;BME280;2729;50.056;8.678;2023-02-12T09:18:51;102544.91;;;8.96;100.00
5413;BME280;2729;50.056;8.678;2023-02-12T09:21:18;102542.47;;;9.06;100.00
5413;BME280;2729;50.056;8.678;2023-02-12T09:23:45;102541.50;;;9.00;100.00
5413;BME280;2729;50.056;8.678;2023-02-12T09:26:13;102544.44;;;9.19;100.00
5413;BME280;2729;50.056;8.678;2023-02-12T09:28:40;102546.00;;;9.09;100.00
5413;BME280;2729;50.056;8.678;2023-02-12T09:31:13;102542.63;;;9.15;100.00
5413;BME280;2729;50.056;8.678;2023-02-12T09:33:39;102544.44;;;9.19;100.00
5413;BME280;2729;50.056;8.678;2023-02-12T09:36:11;102547.00;;;9.16;100.00
5413;BME280;2729;50.056;8.678;2023-02-12T09:38:37;102541.91;;;9.23;100.00
5413;BME280;2729;50.056;8.678;2023-02-12T09:44:06;102548.38;;;9.47;100.00
5413;BME280;2729;50.056;8.678;2023-02-12T09:46:48;102547.16;;;9.25;100.00
5413;BME280;2729;50.056;8.678;2023-02-12T09:49:22;102545.91;;;9.54;100.00
5413;BME280;2729;50.056;8.678;2023-02-12T09:51:51;102537.81;;;9.38;100.00
5413;BME280;2729;50.056;8.678;2023-02-12T09:54:22;102537.22;;;9.55;100.00
5413;BME280;2729;50.056;8.678;2023-02-12T09:56:51;102537.44;;;9.69;100.00
5413;BME280;2729;50.056;8.678;2023-02-12T09:59:29;102546.25;;;9.76;100.00
5413;BME280;2729;50.056;8.678;2023-02-12T10:01:58;102539.34;;;9.81;100.00
5413;BME280;2729;50.056;8.678;2023-02-12T10:04:25;102548.72;;;9.68;100.00
5413;BME280;2729;50.056;8.678;2023-02-12T10:07:18;102551.63;;;9.88;100.00
5413;BME280;2729;50.056;8.678;2023-02-12T10:10:09;102552.56;;;9.91;100.00
5413;BME280;2729;50.056;8.678;2023-02-12T10:12:49;102551.06;;;10.09;100.00
5413;BME280;2729;50.056;8.678;2023-02-12T10:15:39;102545.78;;;10.04;100.00
5413;BME280;2729;50.056;8.678;2023-02-12T10:21:02;102546.56;;;9.98;100.00
5413;BME280;2729;50.056;8.678;2023-02-12T10:23:53;102542.56;;;10.20;100.00
5413;BME280;2729;50.056;8.678;2023-02-12T10:26:28;102544.38;;;10.27;100.00
5413;BME280;2729;50.056;8.678;2023-02-12T10:28:58;102544.47;;;10.35;100.00
5413;BME280;2729;50.056;8.678;2023-02-12T10:31:37;102540.91;;;10.28;100.00
5413;BME280;2729;50.056;8.678;2023-02-12T10:34:13;102542.03;;;10.44;100.00
5413;BME280;2729;50.056;8.678;2023-02-12T10:36:47;102546.38;;;10.45;100.00
5413;BME280;2729;50.056;8.678;2023-02-12T10:39:25;102534.34;;;10.56;100.00
5413;BME280;2729;50.056;8.678;2023-02-12T10:42:01;102535.94;;;10.44;100.00
5413;BME280;2729;50.056;8.678;2023-02-12T10:44:28;102540.28;;;10.43;100.00
5413;BME280;2729;50.056;8.678;2023-02-12T10:46:54;102533.38;;;10.50;100.00
5413;BME280;2729;50.056;8.678;2023-02-12T10:49:21;102531.59;;;10.46;100.00
5413;BME280;2729;50.056;8.678;2023-02-12T10:52:10;102522.78;;;10.39;100.00
5413;BME280;2729;50.056;8.678;2023-02-12T10:54:41;102524.63;;;10.45;100.00
5413;BME280;2729;50.056;8.678;2023-02-12T10:57:20;102512.81;;;10.80;100.00
5413;BME280;2729;50.056;8.678;2023-02-12T10:59:51;102511.00;;;10.73;100.00
5413;BME280;2729;50.056;8.678;2023-02-12T11:02:24;102507.72;;;10.91;100.00
5413;BME280;2729;50.056;8.678;2023-02-12T11:04:52;102507.78;;;10.97;100.00
5413;BME280;2729;50.056;8.678;2023-02-12T11:07:19;102498.19;;;10.96;100.00
5413;BME280;2729;50.056;8.678;2023-02-12T11:09:47;102501.88;;;11.19;100.00
5413;BME280;2729;50.056;8.678;2023-02-12T11:12:32;102497.78;;;10.58;100.00
5413;BME280;2729;50.056;8.678;2023-02-12T11:15:24;102491.84;;;10.73;100.00
5413;BME280;2729;50.056;8.678;2023-02-12T11:18:03;102498.06;;;10.84;100.00
5413;BME280;2729;50.056;8.678;2023-02-12T11:20:38;102490.34;;;10.96;100.00
5413;BME280;2729;50.056;8.678;2023-02-12T11:23:23;102493.94;;;11.07;100.00
5413;BME280;2729;50.056;8.678;2023-02-12T11:26:00;102492.38;;;11.31;100.00
5413;BME280;2729;50.056;8.678;2023-02-12T11:28:27;102483.56;;;11.19;100.00
5413;BME280;2729;50.056;8.678;2023-02-12T11:30:59;102481.84;;;11.20;100.00
5413;BME280;2729;50.056;8.678;2023-02-12T11:33:31;102479.44;;;11.50;100.00
5413;BME280;2729;50.056;8.678;2023-02-12T11:36:01;102471.66;;;11.56;100.00
5413;BME280;2729;50.056;8.678;2023-02-12T11:38:34;102480.13;;;11.23;100.00
5413;BME280;2729;50.056;8.678;2023-02-12T11:41:53;102472.50;;;11.52;100.00
5413;BME280;2729;50.056;8.678;2023-02-12T11:43:54;102471.66;;;11.59;100.00
5413;BME280;2729;50.056;8.678;2023-02-12T11:46:24;102465.28;;;11.18;100.00
5413;BME280;2729;50.056;8.678;2023-02-12T11:48:52;102463.69;;;11.40;100.00
5413;BME280;2729;50.056;8.678;2023-02-12T11:51:24;102466.13;;;11.15;100.00
5413;BME280;2729;50.056;8.678;2023-02-12T11:53:52;102454.13;;;11.42;100.00
5413;BME280;2729;50.056;8.678;2023-02-12T11:56:19;102454.03;;;11.28;100.00
5413;BME280;2729;50.056;8.678;2023-02-12T11:58:47;102452.44;;;11.53;100.00
5413;BME280;2729;50.056;8.678;2023-02-12T12:06:35;102443.72;;;11.52;100.00
5413;BME280;2729;50.056;8.678;2023-02-12T12:09:17;102441.13;;;11.54;100.00
5413;BME280;2729;50.056;8.678;2023-02-12T12:11:55;102438.50;;;11.54;100.00
5413;BME280;2729;50.056;8.678;2023-02-12T12:14:29;102440.16;;;11.40;100.00
5413;BME280;2729;50.056;8.678;2023-02-12T12:17:05;102436.81;;;11.62;100.00
5413;BME280;2729;50.056;8.678;2023-02-12T12:20:00;102429.13;;;11.88;100.00
5413;BME280;2729;50.056;8.678;2023-02-12T12:22:45;102437.50;;;11.35;100.00
5413;BME280;2729;50.056;8.678;2023-02-12T12:25:23;102430.44;;;11.19;100.00
5413;BME280;2729;50.056;8.678;2023-02-12T12:27:58;102437.38;;;11.17;100.00
5413;BME280;2729;50.056;8.678;2023-02-12T12:38:47;102421.19;;;11.74;100.00
5413;BME280;2729;50.056;8.678;2023-02-12T12:41:26;102418.28;;;11.25;100.00
5413;BME280;2729;50.056;8.678;2023-02-12T12:44:05;102409.72;;;11.49;100.00
5413;BME280;2729;50.056;8.678;2023-02-12T12:49:18;102411.56;;;11.70;100.00
5413;BME280;2729;50.056;8.678;2023-02-12T12:57:36;102404.59;;;11.69;100.00
5413;BME280;2729;50.056;8.678;2023-02-12T13:00:15;102393.38;;;11.96;100.00
5413;BME280;2729;50.056;8.678;2023-02-12T13:05:58;102397.81;;;12.11;100.00
5413;BME280;2729;50.056;8.678;2023-02-12T13:08:48;102395.06;;;11.79;100.00
5413;BME280;2729;50.056;8.678;2023-02-12T13:11:33;102398.50;;;11.73;100.00
5413;BME280;2729;50.056;8.678;2023-02-12T13:14:12;102400.34;;;11.86;100.00
5413;BME280;2729;50.056;8.678;2023-02-12T13:16:47;102394.09;;;11.66;100.00
5413;BME280;2729;50.056;8.678;2023-02-12T13:22:04;102393.41;;;12.04;100.00
5413;BME280;2729;50.056;8.678;2023-02-12T13:24:56;102389.06;;;12.04;100.00
5413;BME280;2729;50.056;8.678;2023-02-12T13:27:36;102386.44;;;12.07;100.00
5413;BME280;2729;50.056;8.678;2023-02-12T13:32:43;102386.44;;;12.07;100.00
5413;BME280;2729;50.056;8.678;2023-02-12T13:35:18;102381.22;;;12.06;100.00
5413;BME280;2729;50.056;8.678;2023-02-12T13:37:47;102383.81;;;12.06;100.00
5413;BME280;2729;50.056;8.678;2023-02-12T13:40:25;102381.16;;;11.95;100.00
5413;BME280;2729;50.056;8.678;2023-02-12T13:45:45;102369.84;;;11.99;100.00
5413;BME280;2729;50.056;8.678;2023-02-12T13:48:39;102375.09;;;12.05;100.00
5413;BME280;2729;50.056;8.678;2023-02-12T13:51:38;102371.63;;;12.09;100.00
5413;BME280;2729;50.056;8.678;2023-02-12T13:56:55;102369.84;;;11.95;100.00
5413;BME280;2729;50.056;8.678;2023-02-12T14:05:04;102376.75;;;11.80;100.00
5413;BME280;2729;50.056;8.678;2023-02-12T14:07:45;102379.22;;;11.56;100.00
5413;BME280;2729;50.056;8.678;2023-02-12T14:10:30;102378.44;;;11.72;100.00
5413;BME280;2729;50.056;8.678;2023-02-12T14:13:22;102376.75;;;11.77;100.00
5413;BME280;2729;50.056;8.678;2023-02-12T14:15:52;102383.56;;;11.51;100.00
5413;BME280;2729;50.056;8.678;2023-02-12T14:23:39;102384.50;;;11.62;100.00
5413;BME280;2729;50.056;8.678;2023-02-12T14:26:14;102378.41;;;11.63;100.00
5413;BME280;2729;50.056;8.678;2023-02-12T14:28:59;102378.44;;;11.72;100.00
5413;BME280;2729;50.056;8.678;2023-02-12T14:36:41;102367.13;;;11.75;100.00
5413;BME280;2729;50.056;8.678;2023-02-12T14:41:44;102365.38;;;11.74;100.00
5413;BME280;2729;50.056;8.678;2023-02-12T14:46:43;102363.63;;;11.71;100.00
5413;BME280;2729;50.056;8.678;2023-02-12T14:49:33;102359.31;;;11.81;100.00